This is the latest recevied weather packets stored in our database for station/object OM5AMD-15. If no packets are shown the sender has not sent any weather packets the latest 10 day(s).
| Time | Temp. | Humidity | Pressure | Rain* | Wind** | Luminosity | Snow |
|---|---|---|---|---|---|---|---|
| 1777629024 | 19.44° C | 24% | 1032.6 hPa | 0 mm | - | - | - |
| 1777628437 | 18.89° C | 24% | 1032.6 hPa | 0 mm | - | - | - |
| 1777624825 | 18.33° C | 24% | 1033.7 hPa | 0 mm | - | - | - |
| 1777623648 | 17.78° C | 24% | 1033.7 hPa | 0 mm | - | - | - |
| 1777621231 | 16.67° C | 25% | 1033.7 hPa | 0 mm | - | - | - |
| 1777618831 | 14.44° C | 28% | 1033.7 hPa | 0 mm | - | - | - |
| 1777616437 | 12.22° C | 36% | 1033.7 hPa | 0 mm | - | - | - |
| 1777615826 | 11.11° C | 37% | 1033.7 hPa | 0 mm | - | - | - |
| 1777612229 | 6.67° C | 43% | 1033.7 hPa | 0 mm | - | - | - |
| 1777611641 | 6.11° C | 43% | 1033.7 hPa | 0 mm | - | - | - |
| 1777611024 | 6.11° C | 45% | 1033.7 hPa | 0 mm | - | - | - |
| 1777603223 | 5.56° C | 42% | 1033.7 hPa | 0 mm | - | - | - |
| 1777601436 | 4.44° C | 42% | 1033.7 hPa | 0 mm | - | - | - |
| 1777600832 | 4.44° C | 42% | 1033.7 hPa | 0 mm | - | - | - |
| 1777597219 | 6.67° C | 39% | 1032.6 hPa | 0 mm | - | - | - |
| 1777582221 | 10.56° C | 29% | 1031.6 hPa | 0 mm | - | - | - |
| 1777576243 | 12.78° C | 26% | 1031.6 hPa | 0 mm | - | - | - |
| 1777575635 | 12.78° C | 25% | 1031.6 hPa | 0 mm | - | - | - |
| 1777574418 | 13.33° C | 25% | 1031.6 hPa | 0 mm | - | - | - |
| 1777573849 | 13.89° C | 25% | 1030.6 hPa | 0 mm | - | - | - |
| 1777570235 | 15° C | 22% | 1030.6 hPa | 0 mm | - | - | - |
| 1777568449 | 16.11° C | 22% | 1030.6 hPa | 0 mm | - | - | - |
| 1777563019 | 16.67° C | 21% | 1030.6 hPa | 0 mm | - | - | - |
| 1777561843 | 16.67° C | 21% | 1030.6 hPa | 0 mm | - | - | - |
| 1777560017 | 16.67° C | 21% | 1030.6 hPa | 0 mm | - | - | - |
* Rain latest hour (hover to see other rain measurements)
** Current wind speed in m/s (hover to see current wind gust speed)